createdAt,value
2024-04-06T00:04:18.032Z,15.4
2024-04-06T00:14:18.276Z,15.3
2024-04-06T00:24:18.425Z,15.2
2024-04-06T00:34:18.616Z,15
2024-04-06T00:44:18.813Z,14.9
2024-04-06T00:54:19.012Z,14.8
2024-04-06T01:04:19.207Z,14.6
2024-04-06T01:14:19.414Z,14.4
2024-04-06T01:24:19.615Z,14.3
2024-04-06T01:34:19.820Z,14.3
2024-04-06T01:44:20.028Z,14.3
2024-04-06T01:54:20.229Z,14.4
2024-04-06T02:04:20.521Z,14.4
2024-04-06T02:14:20.645Z,14.5
2024-04-06T02:24:20.841Z,14.5
2024-04-06T02:34:21.068Z,14.3
2024-04-06T02:44:21.224Z,14.4
2024-04-06T02:54:21.424Z,14.5
2024-04-06T03:04:21.631Z,14.7
2024-04-06T03:14:21.827Z,14.7
2024-04-06T03:24:22.023Z,14.7
2024-04-06T03:44:22.427Z,14
2024-04-06T03:54:22.640Z,13.8
2024-04-06T04:04:22.835Z,13.5
2024-04-06T04:14:23.036Z,13.8
2024-04-06T04:24:23.236Z,13.9
2024-04-06T04:34:23.460Z,14
2024-04-06T04:44:30.076Z,14.4
2024-04-06T04:54:23.830Z,14.6
2024-04-06T05:04:24.042Z,14.4
2024-04-06T05:14:24.271Z,14.3
2024-04-06T05:24:24.434Z,14.1
2024-04-06T05:34:24.639Z,13.8
2024-04-06T05:44:24.835Z,13.8
2024-04-06T05:54:25.125Z,13.9
2024-04-06T06:04:25.244Z,14.1
2024-04-06T06:14:25.472Z,14.7
2024-04-06T06:34:25.835Z,15
2024-04-06T06:44:26.039Z,15.3
2024-04-06T06:54:26.242Z,16
2024-04-06T07:44:27.252Z,18.8
2024-04-06T07:54:27.463Z,19.5
2024-04-06T08:04:27.640Z,19.9
2024-04-06T08:24:28.035Z,20.9
2024-04-06T08:34:28.264Z,21.4
2024-04-06T08:54:28.640Z,22.1
2024-04-06T09:04:28.836Z,22.2
2024-04-06T09:14:29.030Z,22.6
2024-04-06T09:24:29.237Z,22.8
2024-04-06T09:34:29.446Z,23.3
2024-04-06T09:44:29.640Z,23.7
2024-04-06T09:54:29.830Z,24.1
2024-04-06T10:04:30.036Z,24.4
2024-04-06T10:14:30.231Z,24.8
2024-04-06T10:34:33.614Z,25.6
2024-04-06T10:44:30.856Z,25.1
2024-04-06T10:54:31.046Z,24.7
2024-04-06T11:04:31.376Z,24.6
2024-04-06T11:14:31.429Z,24.9
2024-04-06T11:24:31.630Z,25.6
2024-04-06T11:44:32.034Z,26.3
2024-04-06T11:54:32.221Z,26.7
2024-04-06T12:04:32.428Z,26.6
2024-04-06T12:14:32.650Z,26.5
2024-04-06T12:24:32.856Z,26.6
2024-04-06T12:34:33.033Z,27.1
2024-04-06T12:44:33.237Z,27.2
2024-04-06T12:54:33.427Z,27.1
2024-04-06T13:04:33.632Z,27.1
2024-04-06T13:24:34.062Z,27.2
2024-04-06T13:34:34.251Z,27.3
2024-04-06T13:44:34.428Z,27.3
2024-04-06T13:54:34.667Z,27.2
2024-04-06T14:04:34.848Z,27.2
2024-04-06T14:14:35.021Z,27.4
2024-04-06T14:24:35.212Z,27.5
2024-04-06T14:34:35.504Z,27.7
2024-04-06T14:44:35.617Z,27.8
2024-04-06T15:24:36.494Z,26.8
2024-04-06T15:44:36.823Z,26.7
2024-04-06T15:54:37.030Z,26.6
2024-04-06T16:14:37.435Z,26.4
2024-04-06T16:24:37.646Z,26.2
2024-04-06T16:34:37.830Z,26.1
2024-04-06T16:44:38.020Z,25.9
2024-04-06T16:54:38.232Z,25.7
2024-04-06T17:04:38.418Z,25.5
2024-04-06T17:24:38.818Z,25.1
2024-04-06T17:34:39.012Z,24.9
2024-04-06T17:44:39.215Z,24.6
2024-04-06T17:54:39.434Z,24.3
2024-04-06T18:04:39.608Z,24
2024-04-06T18:14:39.812Z,23.7
2024-04-06T18:24:40.024Z,23.7
2024-04-06T18:34:40.215Z,23.4
2024-04-06T18:44:40.407Z,22.9
2024-04-06T18:54:40.640Z,22.8
2024-04-06T19:04:40.814Z,22.8
2024-04-06T19:14:41.003Z,22.8
2024-04-06T19:24:41.377Z,22.7
2024-04-06T19:34:41.440Z,22.8
2024-04-06T19:44:41.604Z,22.7
2024-04-06T19:54:41.806Z,22.9
2024-04-06T20:04:42.076Z,22.7
2024-04-06T20:14:42.286Z,22.6
2024-04-06T20:24:44.218Z,22.4
2024-04-06T20:34:42.594Z,21.9
2024-04-06T20:54:42.999Z,20.3
2024-04-06T21:04:43.193Z,20.3
2024-04-06T21:14:43.462Z,20.3
2024-04-06T21:24:43.614Z,20.9
2024-04-06T21:34:43.786Z,21.2
2024-04-06T21:44:44.023Z,21.4
2024-04-06T21:54:44.227Z,21.3
2024-04-06T22:14:44.595Z,20.1
2024-04-06T22:24:44.789Z,19.5
2024-04-06T22:34:45.015Z,19.2
2024-04-06T22:44:45.197Z,19.6
2024-04-06T22:54:45.376Z,20.3
2024-04-06T23:04:45.641Z,20.1
2024-04-06T23:14:45.786Z,19.9
2024-04-06T23:24:45.992Z,20.3
2024-04-06T23:34:46.202Z,20.5
2024-04-06T23:44:46.394Z,20.9
2024-04-06T23:54:46.590Z,21
